Time;durP1;ratioP1;P1;durP2;ratioP2;P2;SDS_P1;SDS_P2;PMS_P1;PMS_P2;Temp;Humidity;BMP_temperature;BMP_pressure;BME280_temperature;BME280_humidity;BME280_pressure;Samples;Min_cycle;Max_cycle;Signal;HPM_P1;HPM_P2
2023/08/17 00:03:55;;;;;;;3.17;2.08;;;20.60;1.00;;;;;;10000184;29;20202;-78
2023/08/17 00:09:16;;;;;;;5.22;1.55;;;20.50;1.00;;;;;;9982496;29;20243;-81
2023/08/17 00:14:38;;;;;;;3.42;1.40;;;20.50;1.00;;;;;;9964241;29;20212;-78
2023/08/17 00:19:59;;;;;;;1.75;1.52;;;20.40;1.00;;;;;;9985075;29;20200;-80
2023/08/17 00:25:20;;;;;;;3.03;1.75;;;20.40;1.00;;;;;;9972945;29;20196;-79
2023/08/17 00:30:41;;;;;;;1.98;1.50;;;20.20;1.00;;;;;;9972019;29;20251;-78
2023/08/17 00:36:03;;;;;;;3.72;1.73;;;20.30;1.00;;;;;;9971824;29;20196;-78
2023/08/17 00:41:28;;;;;;;2.58;1.60;;;20.20;1.00;;;;;;9970329;29;20240;-77
2023/08/17 00:46:50;;;;;;;4.95;2.08;;;;;;;;;;9958583;29;20376;-78
2023/08/17 00:52:12;;;;;;;4.95;1.83;;;20.20;99.90;;;;;;9981794;29;20394;-78
2023/08/17 00:57:36;;;;;;;2.78;1.42;;;;;;;;;;9982683;29;20203;-78
2023/08/17 01:02:58;;;;;;;5.68;1.77;;;20.60;99.90;;;;;;9958566;29;20197;-78
2023/08/17 01:08:20;;;;;;;2.95;1.90;;;;;;;;;;9970359;29;20557;-79
2023/08/17 01:13:41;;;;;;;3.88;1.80;;;;;;;;;;9970604;29;20208;-79
2023/08/17 01:19:08;;;;;;;3.58;1.80;;;19.70;1.10;;;;;;9971191;29;20436;-78
2023/08/17 01:24:29;;;;;;;4.28;1.55;;;19.60;1.00;;;;;;9969802;29;20211;-78
2023/08/17 01:29:52;;;;;;;3.72;2.00;;;19.50;37.30;;;;;;9965982;29;20297;-78
2023/08/17 01:35:39;;;;;;;2.13;1.20;;;19.30;99.90;;;;;;9969684;29;20752;-78
2023/08/17 01:41:02;;;;;;;3.95;1.73;;;19.20;99.90;;;;;;9967536;29;20239;-79
2023/08/17 01:46:29;;;;;;;1.88;1.25;;;19.10;1.00;;;;;;9969067;29;20200;-78
2023/08/17 01:51:51;;;;;;;2.40;1.38;;;19.10;1.00;;;;;;9969529;29;20243;-78
2023/08/17 01:57:12;;;;;;;3.55;1.60;;;19.10;1.00;;;;;;9955001;29;20212;-78
2023/08/17 02:02:33;;;;;;;3.35;1.60;;;19.00;1.00;;;;;;9992461;29;20464;-78
2023/08/17 02:07:55;;;;;;;1.98;1.08;;;19.00;1.00;;;;;;9996109;29;20231;-78
2023/08/17 02:13:16;;;;;;;3.70;1.83;;;19.00;1.00;;;;;;9955664;29;20379;-78
2023/08/17 02:18:38;;;;;;;3.47;1.60;;;18.90;51.50;;;;;;9968372;29;20203;-79
2023/08/17 02:24:00;;;;;;;2.03;1.30;;;18.90;88.50;;;;;;9967080;29;20219;-78
2023/08/17 02:29:21;;;;;;;4.10;1.45;;;18.80;1.00;;;;;;9968069;29;20224;-80
2023/08/17 02:34:42;;;;;;;3.70;1.70;;;18.80;1.00;;;;;;9954570;29;20408;-79
2023/08/17 02:40:04;;;;;;;2.90;1.35;;;18.80;1.00;;;;;;9965558;29;20215;-77
2023/08/17 02:45:25;;;;;;;2.15;1.27;;;18.80;1.00;;;;;;9967177;29;20236;-77
2023/08/17 02:50:47;;;;;;;3.22;1.20;;;18.80;1.00;;;;;;9967616;29;20486;-79
2023/08/17 02:56:11;;;;;;;3.90;1.00;;;18.70;1.00;;;;;;9965287;29;20205;-79
2023/08/17 03:01:33;;;;;;;5.40;1.63;;;18.70;1.00;;;;;;9970423;29;20513;-79
2023/08/17 03:06:54;;;;;;;3.08;1.30;;;18.70;1.00;;;;;;10001417;29;20200;-78
2023/08/17 03:12:15;;;;;;;3.58;1.40;;;18.70;99.90;;;;;;9932612;29;20517;-81
2023/08/17 03:17:37;;;;;;;2.85;1.40;;;18.70;99.90;;;;;;9966133;29;20234;-82
2023/08/17 03:22:58;;;;;;;3.15;1.30;;;18.70;99.90;;;;;;9972059;29;20212;-78
2023/08/17 03:28:20;;;;;;;5.30;1.88;;;18.70;1.00;;;;;;10003555;29;20280;-80
2023/08/17 03:33:41;;;;;;;4.60;2.10;;;18.70;99.90;;;;;;10004412;29;20196;-81
2023/08/17 03:39:03;;;;;;;2.92;1.80;;;18.70;99.90;;;;;;9994318;29;20212;-79
2023/08/17 03:44:24;;;;;;;6.82;4.13;;;18.70;99.90;;;;;;9966235;29;20236;-78
2023/08/17 03:49:46;;;;;;;5.53;2.80;;;18.70;99.90;;;;;;9964154;29;20228;-80
2023/08/17 03:55:08;;;;;;;5.30;1.73;;;18.60;1.00;;;;;;9987778;29;20455;-78
2023/08/17 04:00:31;;;;;;;2.80;1.45;;;18.70;1.00;;;;;;10002621;29;20208;-79
2023/08/17 04:05:53;;;;;;;4.80;1.73;;;18.60;1.00;;;;;;10000265;29;20224;-79
2023/08/17 04:11:14;;;;;;;5.10;2.00;;;18.70;1.00;;;;;;9952361;29;20248;-78
2023/08/17 04:16:35;;;;;;;3.13;1.63;;;18.70;1.00;;;;;;9965524;29;20491;-78
2023/08/17 04:21:57;;;;;;;3.60;1.98;;;18.70;1.00;;;;;;9951192;29;20244;-78
2023/08/17 04:27:18;;;;;;;3.92;2.00;;;18.70;1.00;;;;;;9964704;29;20461;-78
2023/08/17 04:32:40;;;;;;;3.78;1.75;;;18.80;99.90;;;;;;9964261;29;20204;-78
2023/08/17 04:38:03;;;;;;;6.93;1.70;;;19.00;99.90;;;;;;9950701;29;20259;-78
2023/08/17 04:43:24;;;;;;;5.63;1.85;;;18.90;99.90;;;;;;9938805;29;20251;-78
2023/08/17 04:48:46;;;;;;;3.80;1.67;;;19.00;10.30;;;;;;9950658;29;20468;-78
2023/08/17 04:54:08;;;;;;;3.42;1.92;;;19.00;1.00;;;;;;9964079;29;20282;-81
2023/08/17 04:59:29;;;;;;;5.05;2.45;;;19.00;1.00;;;;;;9964207;29;20448;-79
2023/08/17 05:04:50;;;;;;;3.22;1.42;;;19.10;1.00;;;;;;10005704;29;20491;-79
2023/08/17 05:10:11;;;;;;;3.20;1.40;;;19.10;1.00;;;;;;9961846;29;20533;-79
2023/08/17 05:15:33;;;;;;;5.28;1.45;;;19.10;99.90;;;;;;9958096;29;20222;-78
2023/08/17 05:20:58;;;;;;;3.92;1.50;;;19.00;1.00;;;;;;9968731;29;20268;-78
2023/08/17 05:26:19;;;;;;;4.22;1.60;;;19.00;1.00;;;;;;9970544;29;20204;-78
2023/08/17 05:31:40;;;;;;;5.57;1.83;;;19.00;1.00;;;;;;9969693;29;20277;-78
2023/08/17 05:37:03;;;;;;;5.30;1.65;;;19.00;1.00;;;;;;9954719;29;20257;-78
2023/08/17 05:42:24;;;;;;;6.70;2.17;;;19.10;1.00;;;;;;9968506;29;20304;-81
2023/08/17 05:47:46;;;;;;;2.30;1.25;;;19.00;1.00;;;;;;9969025;29;20213;-80
2023/08/17 05:53:07;;;;;;;2.67;1.27;;;18.90;1.00;;;;;;9969139;29;20201;-79
2023/08/17 05:58:29;;;;;;;4.63;1.92;;;19.00;1.00;;;;;;9955359;29;20206;-79
2023/08/17 06:03:50;;;;;;;2.97;1.33;;;19.10;99.90;;;;;;10002219;29;20206;-78
2023/08/17 06:09:12;;;;;;;2.38;1.20;;;19.20;99.90;;;;;;9985900;29;20311;-79
2023/08/17 06:14:34;;;;;;;3.53;1.40;;;19.30;1.00;;;;;;9930106;29;20234;-80
2023/08/17 06:19:55;;;;;;;3.28;1.52;;;19.40;99.90;;;;;;9931814;29;20205;-79
2023/08/17 06:25:16;;;;;;;3.97;1.20;;;19.50;99.90;;;;;;9944474;29;20490;-79
2023/08/17 06:30:37;;;;;;;4.38;1.45;;;19.60;1.00;;;;;;9954776;29;20815;-79
2023/08/17 06:35:58;;;;;;;2.38;1.40;;;19.70;74.70;;;;;;9968774;29;20230;-78
2023/08/17 06:41:20;;;;;;;2.60;1.73;;;19.80;99.90;;;;;;9967590;29;20611;-78
2023/08/17 06:46:41;;;;;;;4.50;1.58;;;19.80;99.90;;;;;;9975916;29;20516;-80
2023/08/17 06:52:03;;;;;;;2.08;1.45;;;19.80;1.00;;;;;;9981230;29;20251;-79
2023/08/17 06:57:24;;;;;;;3.60;1.50;;;19.90;99.90;;;;;;9989952;29;20564;-79
2023/08/17 07:02:46;;;;;;;5.80;2.33;;;19.80;99.90;;;;;;9989095;29;20253;-78
2023/08/17 07:08:13;;;;;;;5.18;2.38;;;19.90;99.90;;;;;;9970835;29;20255;-78
2023/08/17 07:13:34;;;;;;;4.57;1.73;;;19.90;1.00;;;;;;9957167;29;20216;-80
2023/08/17 07:18:56;;;;;;;8.35;4.00;;;19.90;99.90;;;;;;9967505;29;20422;-79
2023/08/17 07:24:17;;;;;;;6.75;2.88;;;19.90;1.00;;;;;;9965420;29;20216;-81
2023/08/17 07:29:39;;;;;;;6.38;1.90;;;19.80;1.00;;;;;;9927658;29;20248;-77
2023/08/17 07:35:01;;;;;;;4.53;1.83;;;19.60;1.00;;;;;;9953908;29;20433;-78
2023/08/17 07:40:22;;;;;;;2.63;1.30;;;19.40;99.90;;;;;;9956279;29;20406;-77
2023/08/17 07:45:43;;;;;;;3.85;1.73;;;19.40;1.00;;;;;;9960781;29;20529;-78
2023/08/17 07:51:05;;;;;;;7.30;3.88;;;19.40;1.00;;;;;;9943496;29;20878;-76
2023/08/17 07:56:26;;;;;;;8.90;2.28;;;19.30;1.00;;;;;;9938162;29;20510;-77
2023/08/17 08:01:47;;;;;;;6.47;2.17;;;19.20;1.00;;;;;;9996359;29;20218;-78
2023/08/17 08:07:08;;;;;;;8.65;3.72;;;19.10;99.90;;;;;;9957679;29;20276;-84
2023/08/17 08:12:32;;;;;;;27.17;11.23;;;19.10;1.00;;;;;;9927858;29;20260;-79
2023/08/17 08:17:54;;;;;;;10.88;4.65;;;19.30;1.00;;;;;;9960066;29;20220;-76
2023/08/17 08:23:15;;;;;;;4.13;2.15;;;19.50;99.90;;;;;;9984318;29;20215;-80
2023/08/17 08:28:39;;;;;;;2.05;1.42;;;19.80;1.00;;;;;;9965803;29;20318;-79
2023/08/17 08:34:00;;;;;;;2.67;1.42;;;20.40;1.00;;;;;;9970920;29;20215;-78
2023/08/17 08:39:21;;;;;;;4.00;1.90;;;20.80;99.90;;;;;;9951404;29;20223;-78
2023/08/17 08:44:42;;;;;;;4.13;2.17;;;20.80;99.90;;;;;;9958020;29;20293;-79
2023/08/17 08:50:05;;;;;;;4.07;2.20;;;20.70;1.00;;;;;;9959431;29;20233;-75
2023/08/17 08:55:34;;;;;;;5.00;2.63;;;20.60;98.80;;;;;;9960498;29;20276;-81
2023/08/17 09:00:58;;;;;;;6.40;4.30;;;20.50;1.00;;;;;;9963980;29;20279;-78
2023/08/17 09:06:20;;;;;;;8.20;3.67;;;20.60;1.00;;;;;;9935134;29;20412;-81
2023/08/17 09:11:41;;;;;;;5.75;3.25;;;20.60;99.90;;;;;;9951565;29;20243;-79
2023/08/17 09:17:05;;;;;;;3.90;2.40;;;20.60;99.90;;;;;;9957142;29;20336;-86
2023/08/17 09:22:46;;;;;;;3.03;1.98;;;20.60;1.00;;;;;;9952860;29;20220;-84
2023/08/17 09:28:15;;;;;;;3.13;2.00;;;20.60;60.60;;;;;;9952513;29;20527;-80
2023/08/17 09:33:37;;;;;;;2.92;1.70;;;20.70;1.00;;;;;;9967872;29;20486;-80
2023/08/17 09:38:58;;;;;;;2.42;1.52;;;21.10;99.90;;;;;;9951066;29;20452;-85
2023/08/17 09:44:19;;;;;;;3.83;1.73;;;21.50;15.00;;;;;;9947880;29;20642;-86
2023/08/17 09:49:40;;;;;;;3.78;1.70;;;22.00;1.00;;;;;;9965406;29;20259;-87
2023/08/17 09:55:03;;;;;;;3.30;1.50;;;;;;;;;;9941338;29;20204;-81
2023/08/17 10:00:29;;;;;;;2.58;1.60;;;23.10;63.20;;;;;;9954770;29;20246;-80
2023/08/17 10:06:09;;;;;;;3.42;1.90;;;23.00;1.00;;;;;;9989238;29;20212;-84
2023/08/17 10:11:33;;;;;;;3.83;2.15;;;22.80;1.00;;;;;;9942597;29;20237;-84
2023/08/17 10:17:00;;;;;;;5.93;1.85;;;22.90;99.90;;;;;;9951357;29;20303;-80
2023/08/17 10:22:38;;;;;;;4.57;2.35;;;23.10;1.00;;;;;;9965183;29;20320;-79
2023/08/17 10:28:03;;;;;;;6.82;2.40;;;23.10;1.00;;;;;;9966739;29;20741;-79
2023/08/17 10:33:27;;;;;;;3.25;1.50;;;24.10;1.00;;;;;;9984898;29;20235;-84
2023/08/17 10:39:08;;;;;;;2.88;1.30;;;24.90;99.90;;;;;;9968368;29;20240;-82
2023/08/17 10:44:49;;;;;;;5.60;1.80;;;25.20;26.30;;;;;;9954017;29;20271;-82
2023/08/17 10:50:24;;;;;;;5.97;1.60;;;25.10;1.00;;;;;;9949461;29;20236;-80
2023/08/17 10:55:51;;;;;;;4.45;2.22;;;24.90;1.00;;;;;;9965062;29;20221;-81
2023/08/17 11:01:16;;;;;;;3.63;1.90;;;25.50;1.00;;;;;;9976217;29;20203;-80
2023/08/17 11:06:43;;;;;;;4.75;1.88;;;25.30;1.00;;;;;;9979241;29;20284;-87
2023/08/17 11:12:05;;;;;;;3.65;1.67;;;24.90;1.00;;;;;;9948399;29;20240;-83
2023/08/17 11:17:27;;;;;;;3.60;1.80;;;24.80;1.00;;;;;;9952205;29;20547;-86
2023/08/17 11:22:48;;;;;;;3.60;2.10;;;24.80;1.00;;;;;;9975319;29;20216;-83
2023/08/17 11:28:10;;;;;;;4.80;2.13;;;25.00;1.00;;;;;;9973497;29;20609;-86
2023/08/17 11:33:33;;;;;;;3.58;2.15;;;25.10;1.00;;;;;;9932467;29;20426;-81
2023/08/17 11:38:54;;;;;;;3.45;1.77;;;25.30;1.00;;;;;;9968363;29;20300;-86
2023/08/17 11:44:16;;;;;;;1.85;1.08;;;25.40;1.00;;;;;;9922828;29;20359;-78
2023/08/17 11:49:37;;;;;;;2.65;1.42;;;25.50;1.00;;;;;;9921377;29;20225;-80
2023/08/17 11:54:59;;;;;;;4.15;1.25;;;25.50;1.00;;;;;;9947677;29;20399;-84
2023/08/17 12:00:22;;;;;;;3.55;2.40;;;26.00;1.00;;;;;;9967415;29;20211;-81
2023/08/17 12:05:45;;;;;;;5.75;1.70;;;26.10;1.00;;;;;;9957234;29;20220;-92
2023/08/17 12:11:06;;;;;;;3.85;1.77;;;25.80;1.00;;;;;;9958243;29;20297;-83
2023/08/17 12:16:28;;;;;;;3.58;1.50;;;25.40;1.00;;;;;;9957776;29;20204;-84
2023/08/17 12:21:49;;;;;;;4.93;1.20;;;25.30;1.00;;;;;;9972355;29;20227;-82
2023/08/17 12:27:11;;;;;;;4.22;1.55;;;25.20;1.00;;;;;;9946172;29;20208;-89
2023/08/17 12:32:32;;;;;;;4.45;1.30;;;25.30;1.00;;;;;;9950983;29;20331;-81
2023/08/17 12:37:54;;;;;;;4.55;1.55;;;25.40;1.00;;;;;;9958746;29;20219;-80
2023/08/17 12:43:16;;;;;;;2.85;1.40;;;25.70;1.00;;;;;;10007368;29;20273;-78
2023/08/17 12:48:38;;;;;;;2.35;1.50;;;26.20;1.00;;;;;;9996298;29;20287;-80
2023/08/17 12:53:59;;;;;;;1.83;0.90;;;26.20;1.00;;;;;;9972702;29;20296;-81
2023/08/17 12:59:21;;;;;;;2.50;1.38;;;25.80;1.00;;;;;;9958800;29;20810;-81
2023/08/17 13:04:42;;;;;;;2.95;1.30;;;26.10;1.00;;;;;;9977121;29;20249;-80
2023/08/17 13:10:04;;;;;;;5.47;1.50;;;26.50;1.00;;;;;;9959768;29;20260;-78
2023/08/17 13:15:26;;;;;;;2.97;1.38;;;26.60;1.00;;;;;;9955263;29;20297;-84
2023/08/17 13:20:47;;;;;;;1.95;1.50;;;27.00;1.00;;;;;;9945443;29;20232;-84
2023/08/17 13:26:08;;;;;;;3.40;1.70;;;27.00;1.00;;;;;;9940104;29;20216;-80
2023/08/17 13:31:29;;;;;;;3.63;1.65;;;27.10;1.00;;;;;;9963930;29;20267;-80
2023/08/17 13:36:51;;;;;;;5.25;1.98;;;27.40;1.00;;;;;;9967486;29;20404;-80
2023/08/17 13:42:12;;;;;;;4.97;2.15;;;27.50;1.00;;;;;;9965709;29;20239;-82
2023/08/17 13:47:33;;;;;;;9.20;3.17;;;27.30;1.00;;;;;;9951648;29;20261;-82
2023/08/17 13:52:54;;;;;;;4.40;2.55;;;27.10;1.00;;;;;;9961058;29;20307;-82
2023/08/17 13:58:16;;;;;;;4.70;2.22;;;27.00;1.00;;;;;;9947760;29;20196;-85
2023/08/17 14:03:38;;;;;;;6.22;1.92;;;26.90;1.00;;;;;;9966275;29;20295;-82
2023/08/17 14:08:59;;;;;;;3.08;1.73;;;26.90;1.00;;;;;;9995986;29;20212;-87
2023/08/17 14:14:20;;;;;;;5.13;2.55;;;26.80;1.00;;;;;;9913427;30;20209;-84
2023/08/17 14:19:43;;;;;;;6.28;2.78;;;26.80;1.00;;;;;;9938817;29;20212;-82
2023/08/17 14:25:04;;;;;;;2.05;1.48;;;26.80;1.00;;;;;;9982451;29;20226;-81
2023/08/17 14:30:26;;;;;;;2.53;1.33;;;26.70;1.00;;;;;;9962191;29;20251;-82
2023/08/17 14:35:47;;;;;;;4.97;1.90;;;26.60;1.00;;;;;;9980009;29;20299;-81
2023/08/17 14:41:09;;;;;;;3.50;2.00;;;26.30;1.00;;;;;;9987198;29;20415;-81
2023/08/17 14:46:31;;;;;;;3.65;1.70;;;26.20;1.00;;;;;;9962128;29;20215;-84
2023/08/17 14:51:53;;;;;;;3.45;1.90;;;26.20;1.00;;;;;;9999888;29;20251;-82
2023/08/17 14:57:14;;;;;;;4.07;1.52;;;26.10;1.00;;;;;;9994622;29;20505;-83
2023/08/17 15:02:36;;;;;;;5.35;1.60;;;26.10;1.00;;;;;;9994660;29;20223;-81
2023/08/17 15:07:57;;;;;;;3.20;1.23;;;26.00;1.00;;;;;;9993912;29;20398;-82
2023/08/17 15:13:18;;;;;;;2.08;1.25;;;25.90;1.00;;;;;;9976554;29;20554;-80
2023/08/17 15:18:40;;;;;;;3.72;1.55;;;25.60;1.00;;;;;;9970405;29;20521;-79
2023/08/17 15:24:01;;;;;;;3.45;1.35;;;25.40;1.00;;;;;;10003203;29;20204;-79
2023/08/17 15:29:23;;;;;;;3.03;1.27;;;25.30;1.00;;;;;;9965676;29;20383;-80
2023/08/17 15:34:44;;;;;;;3.88;1.70;;;25.10;1.00;;;;;;9961242;29;20207;-80
2023/08/17 15:40:06;;;;;;;3.50;1.85;;;25.00;1.00;;;;;;9936667;29;20392;-80
2023/08/17 15:45:28;;;;;;;2.78;1.67;;;24.90;1.00;;;;;;9963138;29;20240;-81
2023/08/17 15:50:49;;;;;;;2.38;1.42;;;24.80;1.00;;;;;;9982065;29;20239;-79
2023/08/17 15:56:10;;;;;;;2.45;1.40;;;24.80;1.00;;;;;;9981827;29;20387;-80
2023/08/17 16:01:32;;;;;;;3.38;1.13;;;24.70;1.00;;;;;;9968382;29;20264;-79
2023/08/17 16:06:53;;;;;;;4.25;1.30;;;24.60;1.00;;;;;;9982518;29;20289;-81
2023/08/17 16:12:15;;;;;;;2.45;1.48;;;24.40;1.00;;;;;;9965524;29;20442;-82
2023/08/17 16:17:36;;;;;;;1.92;1.20;;;24.40;1.00;;;;;;9955303;29;20210;-82
2023/08/17 16:22:57;;;;;;;2.72;1.00;;;24.20;1.00;;;;;;10002118;29;20370;-83
2023/08/17 16:28:19;;;;;;;1.98;1.50;;;24.20;1.00;;;;;;9972953;29;20200;-80
2023/08/17 16:33:40;;;;;;;2.08;1.35;;;24.10;1.00;;;;;;9962849;29;20312;-80
2023/08/17 16:39:02;;;;;;;3.75;1.60;;;24.10;1.00;;;;;;9964153;29;20196;-80
2023/08/17 16:44:24;;;;;;;3.92;1.58;;;24.00;1.00;;;;;;9964983;29;20243;-80
2023/08/17 16:49:47;;;;;;;3.47;1.20;;;23.80;1.00;;;;;;9984479;29;20231;-79
2023/08/17 16:55:09;;;;;;;2.55;1.40;;;23.80;1.00;;;;;;9988338;29;20409;-79
2023/08/17 17:00:30;;;;;;;4.20;1.67;;;23.60;1.00;;;;;;9978107;29;20200;-79
2023/08/17 17:05:51;;;;;;;3.47;1.60;;;23.50;1.00;;;;;;9958470;29;20350;-79
2023/08/17 17:11:13;;;;;;;3.22;1.88;;;23.20;1.00;;;;;;9970637;29;20232;-79
2023/08/17 17:16:34;;;;;;;2.67;1.50;;;23.00;1.00;;;;;;9972361;29;20283;-79
2023/08/17 17:21:55;;;;;;;6.72;1.80;;;22.90;1.00;;;;;;10007406;29;20215;-80
2023/08/17 17:27:16;;;;;;;6.03;1.55;;;22.70;1.00;;;;;;9986824;29;20219;-79
2023/08/17 17:32:38;;;;;;;3.30;1.50;;;22.60;1.00;;;;;;9979925;29;20235;-79
2023/08/17 17:37:59;;;;;;;2.38;1.50;;;22.50;1.00;;;;;;9984020;29;20279;-79
2023/08/17 17:43:22;;;;;;;2.90;1.55;;;22.40;1.00;;;;;;9969139;29;20319;-78
2023/08/17 17:48:44;;;;;;;3.90;1.50;;;22.30;1.00;;;;;;9989407;29;20208;-79
2023/08/17 17:54:06;;;;;;;2.10;1.50;;;22.30;1.00;;;;;;10002378;29;20235;-79
2023/08/17 17:59:27;;;;;;;4.20;1.50;;;22.20;1.00;;;;;;9970391;29;20251;-79
2023/08/17 18:04:48;;;;;;;2.63;1.55;;;22.10;1.00;;;;;;9971606;29;20247;-79
2023/08/17 18:10:09;;;;;;;4.10;1.60;;;22.00;1.00;;;;;;9994289;29;20251;-78
2023/08/17 18:15:32;;;;;;;1.92;1.52;;;21.90;1.00;;;;;;10007162;29;20199;-78
2023/08/17 18:20:53;;;;;;;4.10;2.00;;;21.80;1.00;;;;;;10002649;29;20232;-79
2023/08/17 18:26:14;;;;;;;4.40;2.53;;;21.70;1.00;;;;;;9968322;29;20204;-79
2023/08/17 18:31:40;;;;;;;3.50;1.80;;;21.60;99.90;;;;;;9955123;29;20228;-79
2023/08/17 18:37:02;;;;;;;3.63;2.10;;;21.50;99.90;;;;;;9986495;29;20211;-79
2023/08/17 18:42:23;;;;;;;4.38;2.10;;;;;;;;;;10005166;29;20600;-79
2023/08/17 18:47:46;;;;;;;3.13;1.80;;;21.20;1.00;;;;;;10005085;29;20229;-79
2023/08/17 18:53:08;;;;;;;4.18;1.77;;;;;;;;;;10000090;29;20249;-79
2023/08/17 18:58:30;;;;;;;4.15;1.90;;;;;;;;;;9970904;29;20208;-79
2023/08/17 19:03:51;;;;;;;6.90;2.55;;;20.90;1.00;;;;;;9995541;29;20203;-79
2023/08/17 19:09:12;;;;;;;4.03;1.98;;;20.80;1.00;;;;;;9982358;29;20208;-79
2023/08/17 19:14:33;;;;;;;4.47;2.00;;;20.70;1.00;;;;;;9973116;29;20231;-79
2023/08/17 19:19:54;;;;;;;3.40;1.75;;;20.60;1.00;;;;;;9984588;29;20196;-79
2023/08/17 19:25:16;;;;;;;3.17;1.75;;;20.50;1.00;;;;;;9964575;29;20212;-79
2023/08/17 19:30:37;;;;;;;4.30;1.77;;;20.50;1.00;;;;;;9966075;29;20316;-79
2023/08/17 19:35:58;;;;;;;3.47;1.88;;;20.40;1.00;;;;;;9953002;29;20401;-79
2023/08/17 19:41:20;;;;;;;3.28;1.85;;;20.30;1.00;;;;;;9965314;29;20419;-79
2023/08/17 19:46:42;;;;;;;5.90;2.22;;;;;;;;;;9963444;29;20204;-79
2023/08/17 19:52:04;;;;;;;3.47;1.83;;;;;;;;;;9956575;29;20315;-78
2023/08/17 19:57:25;;;;;;;4.30;2.15;;;20.30;1.00;;;;;;9966090;29;20228;-79
2023/08/17 20:02:46;;;;;;;4.68;1.98;;;20.20;1.00;;;;;;10003115;29;20204;-79
2023/08/17 20:08:08;;;;;;;3.95;2.15;;;20.20;1.00;;;;;;9963989;29;20236;-79
2023/08/17 20:13:29;;;;;;;5.00;1.75;;;20.10;1.00;;;;;;9965358;29;20236;-79
2023/08/17 20:18:50;;;;;;;2.80;1.70;;;20.10;1.00;;;;;;9951049;29;20483;-79
2023/08/17 20:24:13;;;;;;;3.85;1.83;;;20.10;1.00;;;;;;9963850;29;20283;-79
2023/08/17 20:29:34;;;;;;;3.13;1.90;;;19.90;1.00;;;;;;9927870;29;20500;-79
2023/08/17 20:34:56;;;;;;;2.65;1.73;;;20.00;1.00;;;;;;9945812;29;20275;-79
2023/08/17 20:40:17;;;;;;;2.13;1.70;;;20.00;1.00;;;;;;9959078;29;20208;-79
2023/08/17 20:45:40;;;;;;;2.97;1.77;;;20.00;1.00;;;;;;9972547;29;20200;-78
2023/08/17 20:51:01;;;;;;;2.63;1.77;;;20.00;1.00;;;;;;9970907;29;20509;-81
2023/08/17 20:56:24;;;;;;;3.20;1.63;;;20.10;1.00;;;;;;9971172;29;20215;-78
2023/08/17 21:01:45;;;;;;;2.78;1.40;;;20.10;1.00;;;;;;9975750;29;20215;-80
2023/08/17 21:07:06;;;;;;;2.28;1.73;;;20.10;1.00;;;;;;9997121;29;20216;-79
2023/08/17 21:12:29;;;;;;;4.05;2.30;;;20.10;1.00;;;;;;9945081;29;20240;-79
2023/08/17 21:17:51;;;;;;;3.60;1.88;;;20.10;1.00;;;;;;9971589;29;20200;-78
2023/08/17 21:23:13;;;;;;;5.70;2.38;;;20.10;1.00;;;;;;9970409;29;20283;-78
2023/08/17 21:28:34;;;;;;;1.77;1.40;;;20.10;1.00;;;;;;9957041;29;20204;-79
2023/08/17 21:33:56;;;;;;;2.95;1.88;;;20.00;1.00;;;;;;9970874;29;20239;-79
2023/08/17 21:39:18;;;;;;;2.20;1.70;;;20.10;1.00;;;;;;9981508;29;20221;-79
2023/08/17 21:44:39;;;;;;;3.30;1.77;;;20.10;98.10;;;;;;9970307;29;20233;-79
2023/08/17 21:50:00;;;;;;;3.03;2.03;;;20.10;99.90;;;;;;9969577;29;20435;-79
2023/08/17 21:55:22;;;;;;;2.67;1.90;;;20.10;1.00;;;;;;9968349;29;20269;-79
2023/08/17 22:00:44;;;;;;;3.17;2.17;;;20.10;1.00;;;;;;9979580;29;20360;-79
2023/08/17 22:06:06;;;;;;;3.45;2.30;;;20.10;99.90;;;;;;9999119;29;20496;-78
2023/08/17 22:11:28;;;;;;;3.13;2.03;;;20.10;1.00;;;;;;9980990;29;20224;-79
2023/08/17 22:16:49;;;;;;;3.85;2.03;;;20.20;99.90;;;;;;9968511;29;20201;-79
2023/08/17 22:22:11;;;;;;;2.53;1.80;;;20.30;99.90;;;;;;9953969;29;20219;-82
2023/08/17 22:27:33;;;;;;;2.70;2.10;;;20.30;1.00;;;;;;9967460;29;20243;-79
2023/08/17 22:32:54;;;;;;;2.00;1.80;;;20.30;99.90;;;;;;9967594;29;20462;-79
2023/08/17 22:38:16;;;;;;;4.25;2.60;;;20.30;1.00;;;;;;9967565;29;20209;-78
2023/08/17 22:43:37;;;;;;;3.38;2.15;;;20.30;1.00;;;;;;9967430;29;20332;-79
2023/08/17 22:48:58;;;;;;;4.18;1.95;;;20.30;1.00;;;;;;9967514;29;20479;-79
2023/08/17 22:54:19;;;;;;;2.55;1.77;;;20.40;84.00;;;;;;9965310;29;20311;-80
2023/08/17 22:59:41;;;;;;;3.70;2.33;;;20.30;99.90;;;;;;9969752;29;20230;-79
2023/08/17 23:05:02;;;;;;;3.03;2.25;;;20.40;1.00;;;;;;10004662;29;20204;-78
2023/08/17 23:10:23;;;;;;;3.30;2.08;;;20.40;1.00;;;;;;9953133;29;20410;-79
2023/08/17 23:15:45;;;;;;;2.20;1.90;;;20.40;1.00;;;;;;9967492;29;20204;-79
2023/08/17 23:21:06;;;;;;;4.13;2.58;;;20.40;99.90;;;;;;9965408;29;20240;-79
2023/08/17 23:26:27;;;;;;;4.13;2.65;;;20.40;99.90;;;;;;9978481;29;20229;-79
2023/08/17 23:31:49;;;;;;;3.60;2.65;;;20.40;99.90;;;;;;9966892;29;20235;-79
2023/08/17 23:37:10;;;;;;;3.92;2.75;;;20.40;99.90;;;;;;9962274;29;20456;-79
2023/08/17 23:42:31;;;;;;;3.72;2.67;;;20.40;29.20;;;;;;9952945;29;20264;-80
2023/08/17 23:47:53;;;;;;;4.43;2.80;;;20.30;1.00;;;;;;9966755;29;20260;-81
2023/08/17 23:53:14;;;;;;;2.97;2.67;;;20.20;99.90;;;;;;9964208;29;20240;-79
2023/08/17 23:58:36;;;;;;;3.00;2.40;;;20.10;1.00;;;;;;9965171;29;20234;-79
